Date,TemperatureHighF,TemperatureAvgF,TemperatureLowF,DewpointHighF,DewpointAvgF,DewpointLowF,HumidityHigh,HumidityAvg,HumidityLow,PressureMaxIn,PressureMinIn,WindSpeedMaxMPH,WindSpeedAvgMPH,GustSpeedMaxMPH,PrecipitationSumIn
2013-1-1,51,45,-31,31,14,-100,59,33,25,30.03,29.92,36,3,55,0.01
2013-1-2,56,42,46,21,-2,-100,26,21,23,29.99,29.90,39,22,64,0.01
2013-1-3,57,54,52,16,14,10,22,20,17,29.96,29.87,31,23,38,0.00
2013-1-4,58,54,51,23,15,6,29,22,15,30.03,29.96,32,11,39,0.00
2013-1-5,55,52,47,38,15,-100,56,31,15,30.09,29.97,21,5,25,0.00
2013-1-6,46,42,40,41,35,-100,95,86,58,29.97,29.84,13,-24,24,0.01
2013-1-7,59,51,41,38,29,-100,87,47,21,29.96,29.85,11,3,15,0.00
2013-1-8,68,63,58,45,25,-100,44,28,18,29.93,29.86,22,7,32,0.00
2013-1-9,64,56,44,47,39,33,95,55,31,29.91,29.76,21,3,32,0.00
2013-1-10,48,42,35,43,28,-100,96,68,35,29.91,29.70,9,3,24,0.00
2013-1-11,45,40,35,28,22,15,59,48,33,30.00,29.88,8,2,21,0.00
2013-1-12,47,41,37,27,15,-100,61,43,31,29.96,29.88,12,4,20,0.00
2013-1-13,46,41,35,26,19,9,60,42,32,29.96,29.86,33,9,50,0.00
2013-1-14,43,37,32,9,4,1,34,25,20,30.18,29.91,36,19,48,0.00
2013-1-15,54,48,39,27,14,-100,37,27,21,30.25,30.17,25,14,43,0.00
2013-1-16,63,56,50,28,18,-100,33,26,19,30.19,29.96,34,-12,48,0.00
2013-1-17,64,62,58,18,13,-100,20,15,14,29.96,29.87,40,24,64,0.00
2013-1-18,65,61,59,18,14,12,17,16,14,29.94,29.87,40,21,52,0.00
2013-1-19,65,62,58,15,12,9,16,14,12,29.95,29.90,38,18,49,0.00
2013-1-20,66,60,60,14,4,-100,14,12,12,29.95,29.83,35,17,51,0.00
2013-1-21,67,65,61,13,9,3,13,11,8,29.91,29.80,38,24,58,0.00
2013-1-22,70,65,62,19,9,-100,17,12,10,29.89,29.82,30,-10,43,0.00
2013-1-23,69,61,49,41,27,14,74,30,14,29.88,29.81,15,2,25,0.04
2013-1-24,57,51,46,52,49,42,100,91,77,29.97,29.85,25,16,36,0.36
2013-1-25,58,55,51,50,49,46,92,80,66,29.98,29.78,30,22,39,0.17
2013-1-26,57,54,46,55,50,-100,96,90,78,29.78,29.70,24,7,29,0.14
2013-1-27,53,47,43,48,39,-100,97,80,44,29.83,29.73,15,4,20,0.08
2013-1-28,49,44,41,37,25,-100,67,52,45,30.00,29.83,15,5,22,0.04
2013-1-29,51,47,43,39,28,-100,67,53,46,30.07,29.97,8,2,11,0.01
2013-1-30,61,56,48,44,29,-100,58,44,39,30.19,30.06,21,9,30,0.00
2013-1-31,69,64,57,45,24,-100,45,34,32,30.03,29.92,24,9,32,0.00
2013-2-1,70,64,59,47,35,-100,61,36,30,29.96,29.91,26,10,30,0.00
2013-2-2,66,63,57,43,32,-100,58,36,26,30.00,29.93,26,13,34,0.00
2013-2-3,65,61,58,48,40,-100,57,47,32,29.94,29.81,19,-1,26,0.00
2013-2-4,64,61,58,50,38,29,65,44,29,29.88,29.76,15,6,24,0.00
2013-2-5,59,51,46,49,42,32,96,77,38,29.83,29.76,10,3,15,0.00
2013-2-6,54,49,43,48,44,38,97,84,56,29.92,29.80,10,2,13,0.00
2013-2-7,51,47,42,45,42,38,95,84,60,29.91,29.76,13,4,16,0.00
2013-2-8,43,39,37,39,33,-100,94,84,75,29.76,29.66,19,6,31,0.02
2013-2-9,49,42,38,37,28,-100,85,63,53,29.91,29.73,8,-23,14,0.01
2013-2-10,46,42,39,39,37,28,91,82,55,29.91,29.82,16,6,19,0.00
2013-2-11,54,47,41,37,26,-100,83,50,30,30.05,29.88,15,-20,23,0.00
2013-2-12,54,50,46,36,24,11,58,38,20,30.16,30.05,14,7,18,0.00
2013-2-13,61,56,48,42,30,21,58,39,24,30.07,29.94,16,5,25,0.00
2013-2-14,67,62,57,31,27,23,32,26,21,30.00,29.88,23,11,32,0.00
2013-2-15,68,63,58,28,24,18,29,23,17,30.01,29.91,35,15,57,0.01
2013-2-16,71,64,61,30,20,14,24,19,14,29.98,29.76,32,12,40,0.01
2013-2-17,62,56,46,45,32,18,95,49,19,29.78,29.69,14,5,18,0.00
2013-2-18,52,46,42,46,44,41,96,91,73,29.83,29.75,16,6,20,0.00
2013-2-19,45,41,36,42,38,33,96,90,81,29.78,29.51,26,8,30,0.09
2013-2-20,51,42,33,35,29,23,93,62,44,29.81,29.50,10,4,20,0.09
2013-2-21,50,45,41,39,32,25,79,59,42,29.92,29.78,12,5,16,0.00
2013-2-22,54,50,47,36,28,21,55,42,32,30.00,29.92,13,5,18,0.00
2013-2-23,53,49,47,46,27,-100,86,50,32,29.97,29.72,29,6,38,0.00
2013-2-24,54,50,44,28,7,-100,47,25,18,29.97,29.80,34,-67,46,0.00
2013-2-25,57,54,51,32,19,6,48,27,15,30.03,29.87,18,3,22,0.00
2013-2-26,64,57,49,31,18,-100,36,26,20,29.93,29.80,26,8,34,0.00
2013-2-27,65,59,53,22,16,10,21,19,17,30.09,29.93,32,14,40,0.00
2013-2-28,71,62,57,28,21,12,27,20,16,30.13,30.06,24,9,30,0.00
2013-3-1,74,68,62,32,23,18,24,18,16,30.11,29.98,26,4,30,0.00
2013-3-2,73,68,63,36,26,20,29,21,16,30.01,29.86,0,0,0,0.00
2013-3-3,66,57,51,49,39,25,82,54,23,29.88,29.75,0,0,0,0.00
2013-3-4,58,53,48,48,40,-100,86,71,63,29.90,29.78,0,0,0,0.00
2013-3-5,55,46,42,48,36,-100,96,84,69,29.91,29.82,0,0,0,0.00
2013-3-6,46,44,40,44,42,39,96,94,82,29.96,29.82,6,2,11,0.01
2013-3-7,48,44,41,44,39,-100,97,88,67,29.83,29.64,15,4,20,0.05
2013-3-8,47,42,38,43,37,-100,96,89,83,29.83,29.56,21,6,26,0.33
2013-3-9,56,48,40,44,39,28,95,73,37,30.04,29.83,11,3,14,0.18
2013-3-10,67,60,53,36,28,15,41,30,19,30.10,29.98,24,8,32,0.01
2013-3-11,66,63,60,46,33,24,53,33,22,29.98,29.84,16,4,20,0.00
2013-3-12,72,68,63,49,31,-100,45,27,16,29.88,29.81,16,7,23,0.00
2013-3-13,80,75,70,49,25,-100,38,21,17,29.91,29.82,0,0,0,0.00
2013-3-14,80,75,72,51,34,-100,41,25,18,29.87,29.78,0,0,0,0.00
2013-3-15,75,70,66,50,39,-100,57,37,27,29.79,29.70,0,0,0,0.00
2013-3-16,71,66,62,51,43,34,64,43,30,29.72,29.65,0,0,0,0.00
2013-3-17,66,62,57,51,44,36,72,53,34,29.76,29.69,6,0,9,0.00
2013-3-18,56,51,45,50,47,43,95,85,69,29.87,29.72,11,3,14,0.00
2013-3-19,62,56,50,52,46,-100,90,74,58,29.91,29.83,19,5,23,0.00
2013-3-20,62,59,56,52,48,43,80,68,56,29.88,29.75,9,4,15,0.00
2013-3-21,63,59,55,50,45,28,71,60,29,29.75,29.59,14,6,19,0.00
2013-3-22,68,60,54,45,31,23,47,34,25,29.70,29.57,14,5,23,0.00
2013-3-23,64,60,55,47,29,9,59,33,14,29.80,29.68,13,4,19,0.00
2013-3-24,70,64,59,48,32,12,48,32,14,29.80,29.69,11,4,15,0.00
2013-3-25,67,63,59,52,38,27,62,42,25,29.76,29.68,11,5,13,0.00
2013-3-26,62,57,54,50,44,27,76,62,27,29.75,29.69,7,2,14,0.00
2013-3-27,57,52,48,50,46,37,91,80,51,29.84,29.69,19,8,23,0.00
2013-3-28,62,55,49,52,49,46,91,79,60,29.88,29.81,14,6,20,0.00
2013-3-29,70,63,55,54,47,40,74,56,43,29.90,29.82,14,3,16,0.00
2013-3-30,63,58,53,51,43,-100,78,62,33,29.91,29.83,11,3,15,0.00
2013-3-31,55,49,47,52,44,-100,97,91,79,29.92,29.85,14,6,20,0.02
2013-4-1,55,49,45,52,45,-100,97,92,85,29.97,29.88,17,4,25,0.01
2013-4-2,64,57,49,52,41,-100,90,71,53,29.90,29.82,9,4,14,0.00
2013-4-3,70,63,57,55,45,33,73,53,40,29.87,29.79,12,3,15,0.00
2013-4-4,67,57,51,54,49,31,93,75,26,29.88,29.79,15,3,28,0.00
2013-4-5,61,56,52,54,50,-100,95,83,68,29.88,29.80,12,4,22,0.00
2013-4-6,65,59,53,53,49,-100,87,73,56,29.88,29.75,10,3,18,0.00
2013-4-7,68,61,56,53,44,-100,80,58,46,29.77,29.57,14,4,16,0.00
2013-4-8,60,53,45,49,37,-100,95,59,34,29.62,29.46,14,5,26,0.00
2013-4-9,66,56,-25,40,24,-100,55,35,21,29.82,29.63,13,4,21,0.00
2013-4-10,71,66,61,36,26,17,34,22,16,29.92,29.77,30,9,43,0.00
2013-4-11,69,59,-24,48,35,-100,77,46,25,29.78,29.55,13,5,19,0.00
2013-4-12,68,59,48,53,46,-100,90,67,41,29.65,29.57,14,4,20,0.00
2013-4-13,58,52,48,53,46,-100,96,88,73,29.69,29.62,16,5,20,0.00
2013-4-14,53,48,47,49,44,-100,97,95,96,29.69,29.63,9,3,14,0.01
2013-4-15,50,48,44,49,43,-100,97,91,81,29.70,29.63,12,5,19,0.01
2013-4-16,55,47,42,43,30,-100,95,64,29,29.84,29.65,13,5,22,0.00
2013-4-17,61,54,48,34,23,-100,43,30,21,29.98,29.84,18,5,25,0.00
2013-4-18,70,60,54,25,19,15,27,21,15,30.03,29.95,32,14,51,0.00
2013-4-19,74,67,60,35,23,13,30,19,13,29.97,29.78,24,8,29,0.00
2013-4-20,79,71,65,51,37,27,41,29,21,29.79,29.68,14,3,22,0.00
2013-4-21,75,70,65,50,42,32,49,36,23,29.77,29.69,14,4,16,0.00
2013-4-22,63,59,54,52,45,36,82,62,39,29.75,29.67,10,2,11,0.00
2013-4-23,69,55,48,52,49,42,96,82,37,29.77,29.67,12,3,14,0.00
2013-4-24,55,50,48,50,48,46,97,96,81,29.79,29.67,11,4,14,0.00
2013-4-25,59,52,47,48,45,42,97,77,59,29.92,29.76,12,4,22,0.00
2013-4-26,66,59,52,51,47,45,77,66,50,29.97,29.91,8,3,16,0.00
2013-4-27,78,71,63,54,48,34,59,44,21,29.94,29.77,11,3,18,0.00
2013-4-28,80,73,68,56,47,36,57,40,25,29.78,29.59,12,3,14,0.00
2013-4-29,71,65,60,57,52,39,75,63,37,29.64,29.55,12,4,14,0.00
2013-4-30,59,53,50,53,50,49,96,90,75,29.69,29.57,9,3,14,0.00
2013-5-1,78,59,50,54,48,12,96,75,9,29.88,29.69,25,5,32,0.00
2013-5-2,81,74,68,23,7,-100,17,8,5,29.91,29.82,47,18,57,0.00
2013-5-3,84,75,72,33,12,-100,21,11,7,29.83,29.56,31,11,42,0.00
2013-5-4,77,64,51,54,45,26,95,57,17,29.57,29.49,11,2,15,0.00
2013-5-5,55,51,49,49,47,46,95,87,75,29.73,29.57,17,9,23,0.00
2013-5-6,55,50,49,52,46,-100,97,91,81,29.82,29.68,12,5,19,0.10
2013-5-7,59,52,50,50,44,-100,96,77,62,29.86,29.78,10,3,22,0.01
2013-5-8,58,53,49,50,44,-100,96,79,62,29.91,29.85,15,4,24,0.00
2013-5-9,61,56,51,52,42,-100,84,72,69,29.90,29.82,12,6,15,0.00
2013-5-10,77,67,-24,57,49,-100,74,57,33,29.89,29.80,14,4,20,0.00
2013-5-11,87,77,71,58,37,-100,48,33,28,29.84,29.76,11,3,16,0.00
2013-5-12,88,84,78,58,49,39,37,30,20,29.82,29.69,14,4,22,0.00
2013-5-13,89,84,76,56,46,34,35,26,18,29.75,29.66,15,4,22,0.00
2013-5-14,78,64,56,53,47,32,82,57,19,29.75,29.63,21,8,25,0.00
2013-5-15,62,59,57,53,50,44,83,72,58,29.82,29.74,17,6,22,0.00
2013-5-16,59,52,52,54,35,-100,94,87,77,29.78,29.69,13,4,16,0.00
2013-5-17,62,55,52,55,48,-100,96,85,68,29.79,29.71,15,6,24,0.00
2013-5-18,66,59,53,53,50,42,88,72,41,29.84,29.78,18,6,20,0.00
2013-5-19,75,67,60,53,45,-100,60,47,35,29.78,29.66,10,3,18,0.00
2013-5-20,80,74,66,56,45,31,55,37,23,29.73,29.67,24,5,34,0.00
2013-5-21,76,66,59,58,47,-100,78,60,27,29.69,29.59,13,4,15,0.00
2013-5-22,61,56,51,54,50,-100,96,82,70,29.62,29.56,16,7,20,0.00
2013-5-23,58,54,51,50,47,41,92,78,62,29.74,29.61,20,6,22,0.00
2013-5-24,61,56,51,52,44,-100,86,73,65,29.79,29.70,12,6,22,0.00
2013-5-25,59,55,49,52,48,-100,95,79,68,29.83,29.74,16,6,22,0.00
2013-5-26,61,56,50,52,49,46,93,78,67,29.85,29.77,19,8,21,0.00
2013-5-27,70,61,54,54,51,46,84,70,42,29.80,29.66,14,4,16,0.00
2013-5-28,73,64,58,56,44,-100,77,60,46,29.67,29.55,9,3,19,0.00
2013-5-29,75,70,-14,56,46,-100,61,47,38,29.60,29.49,8,2,16,0.00
2013-5-30,75,68,64,56,51,41,68,55,40,29.64,29.53,12,3,13,0.00
2013-5-31,76,67,60,59,56,51,83,67,49,29.68,29.61,18,3,20,0.00
2013-6-1,88,79,64,60,49,-100,77,40,24,29.64,29.51,17,6,19,0.00
2013-6-2,66,62,54,60,57,52,96,84,63,29.59,29.49,18,7,20,0.00
2013-6-3,69,58,53,57,49,-100,97,85,71,29.69,29.57,12,5,20,0.00
2013-6-4,65,56,53,57,46,-100,97,86,74,29.77,29.67,11,4,16,0.00
2013-6-5,65,58,51,55,49,-100,96,81,61,29.79,29.72,9,2,16,0.00
2013-6-6,69,62,-27,57,52,-100,85,74,62,29.75,29.68,7,2,12,0.00
2013-6-7,71,64,58,58,56,53,86,75,63,29.71,29.57,12,3,15,0.00
2013-6-8,69,63,55,59,54,-100,93,77,67,29.67,29.55,13,4,15,0.00
2013-6-9,66,58,53,59,55,52,97,90,76,29.72,29.65,11,4,13,0.00
2013-6-10,65,58,52,55,51,-100,96,82,65,29.77,29.68,11,3,20,0.01
2013-6-11,76,69,59,59,49,-100,82,55,34,29.74,29.68,11,2,12,0.01
2013-6-12,69,62,56,59,49,-100,93,73,34,29.77,29.67,7,2,11,0.00
2013-6-13,69,62,54,58,53,-100,96,80,44,29.80,29.70,13,3,14,0.00
2013-6-14,69,64,60,58,55,41,85,73,40,29.70,29.62,11,3,14,0.00
2013-6-15,65,59,53,57,52,-100,96,85,63,29.79,29.65,11,4,18,0.00
2013-6-16,73,62,53,58,50,-100,95,73,34,29.82,29.74,8,2,12,0.00
2013-6-17,73,70,66,58,52,-100,68,57,40,29.75,29.65,14,3,16,0.00
2013-6-18,71,64,-14,56,47,-100,77,64,51,29.68,29.60,15,4,20,0.00
2013-6-19,77,68,61,53,41,-100,70,51,25,29.69,29.59,19,5,21,0.00
2013-6-20,71,67,-10,52,43,-100,52,45,25,29.63,29.59,10,3,14,0.00
2013-6-21,68,67,65,54,52,48,64,58,48,29.67,29.62,7,3,15,0.00
2013-6-22,67,65,63,57,54,43,80,68,41,29.69,29.61,10,4,15,0.00
2013-6-23,63,58,54,56,50,-100,95,83,62,29.66,29.59,15,5,18,0.00
2013-6-24,59,56,53,56,53,-100,96,91,85,29.75,29.61,12,5,19,0.00
2013-6-25,73,61,57,60,51,-100,92,80,61,29.80,29.72,10,3,15,0.00
2013-6-26,79,73,66,62,57,-100,76,62,52,29.78,29.70,11,2,12,0.00
2013-6-27,86,79,71,64,60,54,66,54,43,29.81,29.73,17,6,20,0.00
2013-6-28,86,82,79,63,60,53,53,47,38,29.76,29.64,12,1,13,0.00
2013-6-29,93,90,80,64,60,52,47,37,27,29.63,29.51,12,2,18,0.00
2013-6-30,96,87,75,62,55,46,60,36,21,29.54,29.46,20,6,24,0.00
2013-7-1,89,80,70,62,52,-100,68,46,31,29.65,29.52,22,7,27,0.00
2013-7-2,86,79,72,63,48,-100,56,46,34,29.74,29.63,11,4,13,0.00
2013-7-3,82,74,69,62,57,51,71,56,40,29.67,29.56,16,4,20,0.00
2013-7-4,79,74,68,62,56,46,70,55,39,29.59,29.52,16,5,19,0.00
2013-7-5,77,69,64,62,58,46,81,67,39,29.61,29.53,14,4,18,0.00
2013-7-6,78,68,62,63,58,51,87,71,54,29.61,29.54,14,5,18,0.00
2013-7-7,82,74,66,62,56,46,69,56,30,29.62,29.56,11,2,20,0.00
2013-7-8,90,84,77,59,51,46,44,33,24,29.71,29.62,11,4,22,0.00
2013-7-9,90,85,81,59,42,-100,45,29,19,29.76,29.68,17,5,21,0.00
2013-7-10,85,73,68,61,42,-100,68,46,28,29.72,29.65,16,4,20,0.00
2013-7-11,77,68,65,63,59,54,81,72,53,29.74,29.65,17,7,22,0.00
2013-7-13,81,77,70,61,46,-100,65,48,32,29.72,29.62,9,3,19,0.00
2013-7-14,83,79,74,61,56,48,60,45,32,29.69,29.57,12,4,19,0.00
2013-7-15,79,74,68,57,54,45,60,50,30,29.63,29.56,12,2,15,0.00
2013-7-16,80,73,67,54,29,-100,53,37,27,29.75,29.62,7,3,13,0.00
2013-7-17,82,75,68,54,44,-100,54,37,25,29.80,29.74,9,3,12,0.00
2013-7-18,82,76,71,57,48,-100,52,41,23,29.75,29.62,14,4,15,0.00
2013-7-19,82,76,71,57,45,-100,55,43,35,29.66,29.58,9,2,11,0.00
2013-7-20,81,69,61,62,56,-100,84,65,52,29.64,29.55,11,3,14,0.00
2013-7-21,74,68,64,61,59,53,85,73,51,29.70,29.59,17,9,20,0.00
2013-7-22,77,70,65,63,58,53,79,67,57,29.76,29.67,14,4,18,0.00
2013-7-23,74,70,66,60,52,-100,77,66,54,29.80,29.72,9,2,12,0.00
2013-7-24,75,71,68,60,58,52,71,62,47,29.75,29.66,12,1,13,0.00
2013-7-25,78,71,65,61,51,-100,73,60,55,29.76,29.68,18,4,20,0.00
2013-7-26,77,72,62,61,58,56,80,63,54,29.86,29.74,18,5,20,0.00
2013-7-27,79,74,68,60,57,49,71,58,46,29.77,29.64,10,2,12,0.00
2013-7-28,73,65,60,59,56,-100,87,75,60,29.68,29.61,14,5,15,0.00
2013-7-29,71,62,54,57,52,-100,96,77,60,29.81,29.67,15,4,18,0.00
2013-7-30,71,62,59,57,45,-100,84,68,62,29.90,29.81,15,5,16,0.00
2013-7-31,66,62,56,56,54,50,89,77,59,29.87,29.78,12,4,13,0.00
2013-8-1,69,63,56,56,51,-100,90,73,63,29.80,29.70,17,4,19,0.00
2013-8-2,72,63,60,59,51,-100,86,67,41,29.76,29.69,16,4,18,0.00
2013-8-3,74,66,60,59,55,47,80,69,44,29.78,29.71,14,4,16,0.00
2013-8-4,75,70,63,58,54,44,74,60,34,29.78,29.72,7,1,10,0.00
2013-8-5,78,73,70,57,51,39,62,47,31,29.77,29.69,6,1,11,0.00
2013-8-6,71,67,63,56,48,-100,73,59,47,29.79,29.70,7,3,12,0.00
2013-8-7,66,63,61,56,53,46,76,69,56,29.84,29.76,13,4,15,0.00
2013-8-8,70,65,62,56,53,48,76,66,58,29.78,29.69,14,5,16,0.00
2013-8-9,70,65,61,57,53,45,77,65,46,29.74,29.68,14,5,18,0.00
2013-8-10,68,64,59,57,52,42,84,67,41,29.81,29.73,13,4,18,0.00
2013-8-21,84,78,73,58,51,42,53,39,25,29.69,29.62,9,2,12,0.00
2013-8-22,85,81,76,56,46,32,47,30,18,29.68,29.59,12,1,14,0.00
2013-8-23,84,78,74,55,45,34,45,32,22,29.61,29.51,0,0,0,0.00
2013-8-24,81,74,70,56,39,-100,50,35,23,29.63,29.54,0,0,0,0.00
2013-8-25,82,77,71,57,47,36,44,35,25,29.70,29.62,0,0,0,0.00
2013-8-26,82,78,74,57,46,36,47,32,22,29.73,29.64,0,0,0,0.00
2013-8-27,81,78,77,61,49,-100,53,45,39,29.64,29.57,0,0,0,0.00
2013-9-1,78,73,70,68,66,64,87,77,69,29.72,29.64,0,0,0,0.00
2013-9-2,81,76,71,66,53,-100,77,61,41,29.70,29.58,0,0,0,0.00
2013-9-3,84,81,76,64,46,-100,57,44,38,29.69,29.61,0,0,0,0.00
2013-9-4,86,83,80,59,56,53,45,40,33,29.67,29.62,0,0,0,0.00
2013-9-5,90,84,82,59,52,43,43,34,20,29.67,29.59,0,0,0,0.00
2013-9-6,89,84,81,57,44,-100,37,30,26,29.64,29.56,0,0,0,0.00
2013-9-7,89,80,77,55,40,-100,38,30,20,29.65,29.57,6,0,20,0.00
2013-9-8,82,79,76,58,46,-100,48,34,28,29.61,29.52,9,2,18,0.00
2013-9-9,80,75,66,59,52,43,63,45,32,29.58,29.50,16,4,19,0.00
2013-9-10,71,66,59,57,54,43,83,65,37,29.70,29.57,18,6,23,0.00
2013-9-11,72,60,59,58,42,-100,84,64,53,29.78,29.71,61,10,16,0.00
2013-9-12,79,73,68,59,52,43,63,48,31,29.72,29.62,5,1,9,0.00
2013-9-13,83,79,77,57,49,40,49,36,27,29.61,29.44,10,2,11,0.00
2013-9-14,88,83,77,60,48,-100,45,35,27,29.49,29.41,10,1,12,0.00
2013-9-25,67,60,56,55,50,45,87,69,48,29.59,29.47,18,9,22,0.00
2013-9-26,66,58,53,52,46,32,89,65,34,29.70,29.50,15,4,21,0.00
2013-9-27,75,66,59,34,31,26,37,27,20,29.80,29.69,25,9,34,0.00
2013-9-28,77,70,69,38,27,-100,26,21,16,29.82,29.76,19,7,26,0.00
2013-9-29,76,72,69,44,33,26,34,24,19,29.85,29.76,13,4,16,0.00
2013-9-30,77,74,71,51,41,30,41,31,21,29.76,29.62,9,3,11,0.00
2013-10-1,69,66,63,53,49,44,66,53,45,29.69,29.65,10,3,13,0.00
2013-10-2,63,60,55,56,49,-100,94,78,66,29.74,29.67,9,-28,16,0.00
2013-10-3,63,58,54,56,52,-100,96,87,73,29.72,29.62,14,4,16,0.00
2013-10-4,72,67,57,53,22,17,88,20,13,29.88,29.67,41,22,68,0.01
2013-10-5,76,69,63,25,20,-100,23,17,12,29.91,29.83,44,26,69,0.01
2013-10-6,82,74,69,28,21,17,19,14,9,29.89,29.77,25,8,43,0.00
2013-10-7,73,72,68,37,12,-100,32,17,13,29.77,29.70,12,3,15,0.00
2013-10-8,63,57,51,53,44,-100,95,71,36,29.70,29.62,10,5,19,0.00
2013-10-9,52,50,47,50,46,40,95,86,69,29.62,29.49,19,6,27,0.00
2013-10-10,55,50,46,48,44,38,89,80,66,29.83,29.59,11,3,15,0.00
2013-10-11,62,57,51,51,47,42,88,71,50,29.88,29.80,8,2,11,0.00
2013-10-12,66,62,58,52,42,-100,68,56,41,29.78,29.68,12,4,14,0.00
2013-10-13,59,54,49,51,49,47,95,84,68,29.81,29.70,12,5,16,0.00
2013-10-14,74,65,55,51,35,-100,85,38,22,29.85,29.74,26,13,41,0.00
2013-10-15,77,70,66,37,18,-100,26,21,18,29.77,29.69,30,15,39,0.00
2013-10-16,76,68,64,35,25,-100,24,20,14,29.87,29.78,27,12,46,0.00
2013-10-17,71,69,67,40,31,26,33,25,21,29.84,29.74,13,5,22,0.00
2013-10-18,78,72,68,49,35,27,40,26,19,29.80,29.73,17,6,23,0.00
2013-10-19,79,73,68,51,31,-100,40,24,14,29.80,29.74,16,6,22,0.00
2013-10-20,72,68,65,55,49,37,66,50,28,29.73,29.66,8,2,9,0.00
2013-10-21,75,70,67,52,49,45,55,47,35,29.75,29.70,6,3,11,0.00
2013-10-22,74,52,68,52,9,-100,53,34,36,29.73,29.68,7,6,11,0.00
2013-10-23,62,55,51,53,51,48,95,85,72,29.76,29.66,6,1,10,0.00
2013-10-24,60,52,51,53,44,-100,96,85,75,29.83,29.74,11,3,15,0.00
2013-10-25,75,66,54,53,47,41,92,55,33,29.91,29.83,4,0,6,0.00
2013-10-26,81,73,73,52,38,-100,44,32,20,29.86,29.76,9,3,12,0.00
2013-10-27,73,57,50,53,47,27,96,77,19,29.73,29.54,8,3,14,0.00
2013-10-28,52,48,46,50,43,-100,96,91,74,29.76,29.54,19,9,26,0.00
2013-10-29,54,50,46,47,37,-100,95,78,68,29.84,29.76,17,5,27,0.00
2013-10-30,63,56,50,46,38,-100,81,60,41,29.87,29.81,8,2,15,0.00
2013-10-31,69,64,55,43,35,28,55,35,25,29.90,29.81,23,8,26,0.00
2013-11-1,77,72,67,43,31,28,35,22,18,29.91,29.77,23,11,33,0.00
2013-11-2,73,65,62,42,31,-100,46,29,22,29.78,29.65,23,9,26,0.00
2013-11-3,59,55,51,52,48,35,93,79,41,29.69,29.61,10,6,14,0.00
2013-11-4,58,54,50,51,46,30,95,78,34,29.75,29.59,20,6,26,0.00
2013-11-5,64,60,55,28,15,-100,32,21,14,29.95,29.76,31,2,45,0.00
2013-11-6,72,66,61,20,16,11,16,14,12,30.00,29.93,33,22,53,0.00
2013-11-7,77,71,68,34,19,-100,22,16,14,29.92,29.79,0,-41,0,0.00
2013-11-8,71,70,66,49,29,22,45,23,17,29.79,29.72,0,0,0,0.00
2013-11-9,72,63,62,48,30,-100,52,35,25,29.84,29.75,0,0,0,0.00
2013-11-10,75,66,61,46,32,22,48,30,14,29.91,29.82,0,0,0,0.00
2013-11-11,72,70,64,42,35,22,38,28,20,29.89,29.83,0,0,0,0.00
2013-11-12,76,70,73,33,-5,-100,21,14,16,29.94,29.87,0,0,0,0.00
2013-11-13,84,77,71,36,31,24,23,18,13,29.88,29.71,0,0,0,0.00
2013-11-14,81,75,69,39,28,-100,30,20,16,29.72,29.50,0,0,0,0.00
2013-11-15,67,56,51,51,47,38,95,74,35,29.54,29.43,0,0,0,0.00
2013-11-16,55,50,49,51,47,-100,96,91,81,29.74,29.53,0,0,0,0.00
2013-11-17,58,53,48,50,48,46,97,83,65,29.90,29.73,0,0,0,0.00
2013-11-18,56,53,50,50,48,45,93,84,72,29.95,29.85,0,0,0,0.00
2013-11-19,54,51,47,50,48,46,96,89,77,29.89,29.76,0,0,0,0.00
2013-11-20,55,52,49,52,50,46,97,91,81,29.80,29.67,0,0,0,0.09
2013-11-21,53,50,48,52,44,-100,97,91,72,29.68,29.62,26,0,40,0.28
2013-11-22,49,46,45,40,33,-100,75,67,65,29.76,29.64,37,26,52,0.01
2013-11-23,51,47,45,38,35,-100,73,66,59,29.92,29.75,32,22,46,0.00
2013-11-24,60,53,49,43,38,35,67,58,44,30.01,29.88,32,11,42,0.00
2013-11-25,64,59,53,42,36,31,58,43,35,30.05,29.98,20,8,27,0.00
2013-11-26,67,63,60,46,28,-100,51,31,27,29.98,29.84,26,15,34,0.00
2013-11-27,66,60,56,40,36,33,51,41,31,29.84,29.67,26,14,33,0.00
2013-11-28,60,56,53,41,37,34,55,50,42,29.85,29.67,21,14,28,0.00
2013-11-29,59,56,51,43,39,36,67,52,42,29.99,29.84,22,14,36,0.03
2013-11-30,69,62,58,40,29,-100,43,34,28,30.00,29.90,27,13,35,0.02
2013-12-1,73,66,60,32,29,25,33,25,20,30.03,29.92,27,14,37,0.00
2013-12-2,68,65,60,38,32,25,35,30,21,29.91,29.69,22,4,28,0.00
2013-12-3,60,52,43,49,36,-100,95,70,33,29.68,29.50,13,6,19,0.00
2013-12-4,52,46,42,40,25,16,88,47,24,29.75,29.52,19,6,24,0.00
2013-12-5,48,44,41,33,24,-100,62,48,37,29.90,29.74,18,7,22,0.00
2013-12-6,47,44,41,36,33,27,76,65,52,29.98,29.90,12,4,13,0.00
2013-12-7,47,41,39,42,31,-100,95,70,50,29.92,29.78,16,5,26,0.03
2013-12-8,47,40,37,29,21,14,58,46,35,30.01,29.91,30,9,37,0.01
2013-12-9,46,42,38,14,4,-5,37,22,12,30.11,29.98,46,31,68,0.00
2013-12-10,57,52,45,11,-3,-100,18,13,12,30.09,29.93,40,28,60,0.00
2013-12-11,59,56,53,15,12,10,20,18,16,29.99,29.89,33,26,46,0.00
2013-12-12,61,57,52,40,19,-100,52,27,17,30.01,29.93,33,14,43,0.00
2013-12-13,56,52,49,43,32,21,68,46,31,30.00,29.93,8,4,12,0.00
2013-12-14,63,59,56,22,18,-100,25,22,18,30.08,30.00,45,26,60,0.00
2013-12-15,72,67,61,23,20,16,19,17,14,30.05,29.91,41,25,51,0.00
2013-12-16,75,73,70,26,23,20,17,15,14,29.92,29.86,0,0,0,0.00
2013-12-17,78,72,66,32,25,22,21,17,15,29.90,29.78,28,7,41,0.00
2013-12-18,71,59,47,48,36,23,94,49,17,29.78,29.60,10,2,13,0.00
2013-12-19,49,46,44,45,38,-100,96,82,70,29.62,29.48,10,-13,16,0.01
2013-12-20,58,51,45,36,32,24,71,48,35,29.74,29.61,10,0,19,0.01
2013-12-21,54,48,46,45,37,-100,87,70,35,29.89,29.70,2,0,6,0.00
2013-12-22,60,54,47,48,42,33,88,67,37,30.06,29.89,8,0,18,0.00
2013-12-23,69,63,58,36,33,30,34,32,27,30.13,29.99,28,8,42,0.00
2013-12-24,72,66,60,33,31,29,34,28,21,29.99,29.91,38,10,59,0.00
2013-12-25,66,63,60,32,24,10,30,23,13,29.99,29.92,35,25,57,0.00
2013-12-26,69,66,63,14,9,2,13,11,7,29.97,29.89,41,11,58,0.00
2013-12-27,75,70,67,25,14,5,17,12,8,29.94,29.85,5,0,21,0.00
2013-12-28,68,64,62,40,19,-100,37,20,11,29.81,29.69,0,0,0,0.00
2013-12-29,64,62,59,14,12,8,16,14,13,29.95,29.79,0,0,12,0.00
2013-12-30,65,62,59,26,15,5,24,16,10,30.04,29.93,0,0,6,0.00
2013-12-31,62,61,59,44,27,14,57,30,15,29.98,29.86,0,0,0,0.00
2014-1-1,72,68,66,33,26,17,26,20,15,29.92,29.84,0,0,4,0.00
2014-1-2,71,66,65,33,27,25,25,22,21,29.89,29.79,0,0,5,0.00